sensor_id;sensor_type;location;lat;lon;timestamp;P1;durP1;ratioP1;P2;durP2;ratioP2
60488;SDS011;46331;49.252;8.904;2023-04-08T00:00:36;7.18;;;3.03;;
60488;SDS011;46331;49.252;8.904;2023-04-08T00:01:16;11.13;;;4.10;;
60488;SDS011;46331;49.252;8.904;2023-04-08T00:01:57;7.20;;;3.30;;
60488;SDS011;46331;49.252;8.904;2023-04-08T00:02:37;6.20;;;3.10;;
60488;SDS011;46331;49.252;8.904;2023-04-08T00:03:18;7.83;;;3.37;;
60488;SDS011;46331;49.252;8.904;2023-04-08T00:03:59;6.68;;;3.55;;
60488;SDS011;46331;49.252;8.904;2023-04-08T00:04:40;7.90;;;3.78;;
60488;SDS011;46331;49.252;8.904;2023-04-08T00:05:21;7.25;;;3.15;;
60488;SDS011;46331;49.252;8.904;2023-04-08T00:06:02;8.13;;;3.37;;
60488;SDS011;46331;49.252;8.904;2023-04-08T00:06:43;7.15;;;3.25;;
60488;SDS011;46331;49.252;8.904;2023-04-08T00:07:24;6.47;;;2.95;;
60488;SDS011;46331;49.252;8.904;2023-04-08T00:08:05;6.93;;;3.60;;
60488;SDS011;46331;49.252;8.904;2023-04-08T00:08:45;7.25;;;3.03;;
60488;SDS011;46331;49.252;8.904;2023-04-08T00:09:26;6.33;;;3.10;;
60488;SDS011;46331;49.252;8.904;2023-04-08T00:10:06;5.57;;;2.85;;
60488;SDS011;46331;49.252;8.904;2023-04-08T00:10:48;7.75;;;3.33;;
60488;SDS011;46331;49.252;8.904;2023-04-08T00:11:28;6.30;;;2.90;;
60488;SDS011;46331;49.252;8.904;2023-04-08T00:12:09;6.37;;;2.67;;
60488;SDS011;46331;49.252;8.904;2023-04-08T00:12:49;6.22;;;3.10;;
60488;SDS011;46331;49.252;8.904;2023-04-08T00:13:30;6.23;;;3.00;;
60488;SDS011;46331;49.252;8.904;2023-04-08T00:14:10;6.43;;;3.30;;
60488;SDS011;46331;49.252;8.904;2023-04-08T00:14:51;6.80;;;3.00;;
60488;SDS011;46331;49.252;8.904;2023-04-08T00:15:31;6.53;;;3.60;;
60488;SDS011;46331;49.252;8.904;2023-04-08T00:16:12;6.40;;;3.27;;
60488;SDS011;46331;49.252;8.904;2023-04-08T00:16:52;7.97;;;3.40;;
60488;SDS011;46331;49.252;8.904;2023-04-08T00:17:33;6.97;;;3.07;;
60488;SDS011;46331;49.252;8.904;2023-04-08T00:18:15;7.50;;;3.22;;
60488;SDS011;46331;49.252;8.904;2023-04-08T00:18:56;6.82;;;3.53;;
60488;SDS011;46331;49.252;8.904;2023-04-08T00:19:36;7.50;;;3.60;;
60488;SDS011;46331;49.252;8.904;2023-04-08T00:20:17;6.93;;;3.10;;
60488;SDS011;46331;49.252;8.904;2023-04-08T00:20:57;8.33;;;3.00;;
60488;SDS011;46331;49.252;8.904;2023-04-08T00:21:38;6.78;;;3.55;;
60488;SDS011;46331;49.252;8.904;2023-04-08T00:22:18;7.53;;;3.70;;
60488;SDS011;46331;49.252;8.904;2023-04-08T00:22:59;7.60;;;3.88;;
60488;SDS011;46331;49.252;8.904;2023-04-08T00:23:40;9.43;;;4.03;;
60488;SDS011;46331;49.252;8.904;2023-04-08T00:24:20;6.93;;;3.67;;
60488;SDS011;46331;49.252;8.904;2023-04-08T00:25:01;7.20;;;3.83;;
60488;SDS011;46331;49.252;8.904;2023-04-08T00:25:42;6.88;;;3.60;;
60488;SDS011;46331;49.252;8.904;2023-04-08T00:26:22;7.88;;;3.45;;
60488;SDS011;46331;49.252;8.904;2023-04-08T00:27:03;8.93;;;3.90;;
60488;SDS011;46331;49.252;8.904;2023-04-08T00:27:43;7.18;;;3.78;;
60488;SDS011;46331;49.252;8.904;2023-04-08T00:28:24;8.83;;;4.30;;
60488;SDS011;46331;49.252;8.904;2023-04-08T00:29:04;7.55;;;4.13;;
60488;SDS011;46331;49.252;8.904;2023-04-08T00:29:46;7.57;;;3.80;;
60488;SDS011;46331;49.252;8.904;2023-04-08T00:30:26;6.95;;;3.97;;
60488;SDS011;46331;49.252;8.904;2023-04-08T00:31:07;9.20;;;3.95;;
60488;SDS011;46331;49.252;8.904;2023-04-08T00:31:48;8.07;;;4.50;;
60488;SDS011;46331;49.252;8.904;2023-04-08T00:32:28;7.53;;;4.15;;
60488;SDS011;46331;49.252;8.904;2023-04-08T00:33:09;9.70;;;4.67;;
60488;SDS011;46331;49.252;8.904;2023-04-08T00:33:50;7.15;;;3.88;;
60488;SDS011;46331;49.252;8.904;2023-04-08T00:34:30;7.17;;;4.10;;
60488;SDS011;46331;49.252;8.904;2023-04-08T00:35:11;7.93;;;4.10;;
60488;SDS011;46331;49.252;8.904;2023-04-08T00:35:52;8.23;;;4.80;;
60488;SDS011;46331;49.252;8.904;2023-04-08T00:36:32;7.83;;;4.53;;
60488;SDS011;46331;49.252;8.904;2023-04-08T00:37:13;9.02;;;4.30;;
60488;SDS011;46331;49.252;8.904;2023-04-08T00:37:54;7.90;;;4.15;;
60488;SDS011;46331;49.252;8.904;2023-04-08T00:38:35;8.10;;;4.40;;
60488;SDS011;46331;49.252;8.904;2023-04-08T00:39:15;8.00;;;4.18;;
60488;SDS011;46331;49.252;8.904;2023-04-08T00:39:56;8.77;;;4.83;;
60488;SDS011;46331;49.252;8.904;2023-04-08T00:40:36;7.63;;;4.37;;
60488;SDS011;46331;49.252;8.904;2023-04-08T00:41:17;7.38;;;4.20;;
60488;SDS011;46331;49.252;8.904;2023-04-08T00:41:57;7.75;;;4.40;;
60488;SDS011;46331;49.252;8.904;2023-04-08T00:42:38;8.03;;;4.60;;
60488;SDS011;46331;49.252;8.904;2023-04-08T00:43:19;8.47;;;5.20;;
60488;SDS011;46331;49.252;8.904;2023-04-08T00:44:00;8.23;;;4.57;;
60488;SDS011;46331;49.252;8.904;2023-04-08T00:44:41;10.38;;;4.80;;
60488;SDS011;46331;49.252;8.904;2023-04-08T00:45:22;9.60;;;5.30;;
60488;SDS011;46331;49.252;8.904;2023-04-08T00:46:02;8.93;;;5.13;;
60488;SDS011;46331;49.252;8.904;2023-04-08T00:46:44;9.20;;;4.82;;
60488;SDS011;46331;49.252;8.904;2023-04-08T00:47:25;10.13;;;5.35;;
60488;SDS011;46331;49.252;8.904;2023-04-08T00:48:06;9.60;;;5.90;;
60488;SDS011;46331;49.252;8.904;2023-04-08T00:48:46;10.43;;;5.40;;
60488;SDS011;46331;49.252;8.904;2023-04-08T00:49:27;9.13;;;5.18;;
60488;SDS011;46331;49.252;8.904;2023-04-08T00:50:07;11.53;;;5.43;;
60488;SDS011;46331;49.252;8.904;2023-04-08T00:50:49;8.63;;;5.18;;
60488;SDS011;46331;49.252;8.904;2023-04-08T00:51:30;8.37;;;4.53;;
60488;SDS011;46331;49.252;8.904;2023-04-08T00:52:11;8.40;;;4.93;;
60488;SDS011;46331;49.252;8.904;2023-04-08T00:52:53;8.32;;;4.93;;
60488;SDS011;46331;49.252;8.904;2023-04-08T00:53:33;8.40;;;4.30;;
60488;SDS011;46331;49.252;8.904;2023-04-08T00:54:14;7.90;;;4.50;;
60488;SDS011;46331;49.252;8.904;2023-04-08T00:54:55;7.97;;;4.00;;
60488;SDS011;46331;49.252;8.904;2023-04-08T00:55:35;8.32;;;3.95;;
60488;SDS011;46331;49.252;8.904;2023-04-08T00:56:16;7.20;;;3.93;;
60488;SDS011;46331;49.252;8.904;2023-04-08T00:56:56;6.97;;;3.67;;
60488;SDS011;46331;49.252;8.904;2023-04-08T00:57:40;8.85;;;3.58;;
60488;SDS011;46331;49.252;8.904;2023-04-08T00:58:21;7.30;;;3.80;;
60488;SDS011;46331;49.252;8.904;2023-04-08T00:59:02;7.70;;;3.70;;
60488;SDS011;46331;49.252;8.904;2023-04-08T00:59:44;7.20;;;3.65;;
60488;SDS011;46331;49.252;8.904;2023-04-08T01:00:24;7.13;;;3.57;;
60488;SDS011;46331;49.252;8.904;2023-04-08T01:01:19;6.75;;;3.13;;
60488;SDS011;46331;49.252;8.904;2023-04-08T01:03:04;6.43;;;3.22;;
60488;SDS011;46331;49.252;8.904;2023-04-08T01:07:07;7.65;;;3.38;;
60488;SDS011;46331;49.252;8.904;2023-04-08T01:07:50;5.78;;;2.88;;
60488;SDS011;46331;49.252;8.904;2023-04-08T01:08:31;5.93;;;3.17;;
60488;SDS011;46331;49.252;8.904;2023-04-08T01:09:20;6.17;;;3.20;;
60488;SDS011;46331;49.252;8.904;2023-04-08T01:10:06;7.60;;;3.17;;
60488;SDS011;46331;49.252;8.904;2023-04-08T01:10:53;6.88;;;3.38;;
60488;SDS011;46331;49.252;8.904;2023-04-08T01:11:40;7.05;;;3.40;;
60488;SDS011;46331;49.252;8.904;2023-04-08T01:12:26;6.90;;;3.35;;
60488;SDS011;46331;49.252;8.904;2023-04-08T01:13:11;6.70;;;3.67;;
60488;SDS011;46331;49.252;8.904;2023-04-08T01:13:53;7.70;;;3.47;;
60488;SDS011;46331;49.252;8.904;2023-04-08T01:14:38;6.50;;;3.30;;
60488;SDS011;46331;49.252;8.904;2023-04-08T01:15:23;7.88;;;3.60;;
60488;SDS011;46331;49.252;8.904;2023-04-08T01:16:07;6.70;;;3.53;;
60488;SDS011;46331;49.252;8.904;2023-04-08T01:16:50;6.83;;;3.70;;
60488;SDS011;46331;49.252;8.904;2023-04-08T01:17:31;7.22;;;3.58;;
60488;SDS011;46331;49.252;8.904;2023-04-08T01:18:13;6.63;;;3.53;;
60488;SDS011;46331;49.252;8.904;2023-04-08T01:18:56;7.35;;;3.60;;
60488;SDS011;46331;49.252;8.904;2023-04-08T01:19:38;8.20;;;3.65;;
60488;SDS011;46331;49.252;8.904;2023-04-08T01:20:21;6.68;;;3.10;;
60488;SDS011;46331;49.252;8.904;2023-04-08T01:21:04;8.40;;;3.92;;
60488;SDS011;46331;49.252;8.904;2023-04-08T01:21:47;7.40;;;3.63;;
60488;SDS011;46331;49.252;8.904;2023-04-08T01:24:27;7.00;;;3.50;;
60488;SDS011;46331;49.252;8.904;2023-04-08T01:25:32;6.60;;;3.42;;
60488;SDS011;46331;49.252;8.904;2023-04-08T01:26:11;7.68;;;3.50;;
60488;SDS011;46331;49.252;8.904;2023-04-08T01:27:00;7.35;;;3.75;;
60488;SDS011;46331;49.252;8.904;2023-04-08T01:27:43;7.88;;;3.97;;
60488;SDS011;46331;49.252;8.904;2023-04-08T01:28:26;6.35;;;3.38;;
60488;SDS011;46331;49.252;8.904;2023-04-08T01:29:08;7.30;;;3.70;;
60488;SDS011;46331;49.252;8.904;2023-04-08T01:29:51;6.97;;;3.55;;
60488;SDS011;46331;49.252;8.904;2023-04-08T01:30:33;6.93;;;3.80;;
60488;SDS011;46331;49.252;8.904;2023-04-08T01:31:15;6.75;;;3.50;;
60488;SDS011;46331;49.252;8.904;2023-04-08T01:31:56;7.37;;;3.87;;
60488;SDS011;46331;49.252;8.904;2023-04-08T01:32:41;7.07;;;3.95;;
60488;SDS011;46331;49.252;8.904;2023-04-08T01:33:23;7.78;;;4.25;;
60488;SDS011;46331;49.252;8.904;2023-04-08T01:34:07;7.38;;;3.90;;
60488;SDS011;46331;49.252;8.904;2023-04-08T01:34:50;8.00;;;4.55;;
60488;SDS011;46331;49.252;8.904;2023-04-08T01:35:32;8.27;;;4.80;;
60488;SDS011;46331;49.252;8.904;2023-04-08T01:36:13;8.55;;;4.65;;
60488;SDS011;46331;49.252;8.904;2023-04-08T01:36:54;9.68;;;4.28;;
60488;SDS011;46331;49.252;8.904;2023-04-08T01:37:36;8.77;;;5.03;;
60488;SDS011;46331;49.252;8.904;2023-04-08T01:38:19;9.13;;;4.55;;
60488;SDS011;46331;49.252;8.904;2023-04-08T01:39:02;7.75;;;4.22;;
60488;SDS011;46331;49.252;8.904;2023-04-08T01:39:44;8.25;;;4.35;;
60488;SDS011;46331;49.252;8.904;2023-04-08T01:40:27;9.48;;;4.80;;
60488;SDS011;46331;49.252;8.904;2023-04-08T01:41:09;7.65;;;4.72;;
60488;SDS011;46331;49.252;8.904;2023-04-08T01:41:50;8.57;;;4.65;;
60488;SDS011;46331;49.252;8.904;2023-04-08T01:42:33;8.05;;;4.22;;
60488;SDS011;46331;49.252;8.904;2023-04-08T01:43:16;9.43;;;4.72;;
60488;SDS011;46331;49.252;8.904;2023-04-08T01:43:58;8.13;;;4.50;;
60488;SDS011;46331;49.252;8.904;2023-04-08T01:44:40;9.47;;;4.33;;
60488;SDS011;46331;49.252;8.904;2023-04-08T01:45:22;7.95;;;4.63;;
60488;SDS011;46331;49.252;8.904;2023-04-08T01:46:03;8.35;;;4.72;;
60488;SDS011;46331;49.252;8.904;2023-04-08T01:46:45;7.78;;;3.97;;
60488;SDS011;46331;49.252;8.904;2023-04-08T01:47:27;7.80;;;4.18;;
60488;SDS011;46331;49.252;8.904;2023-04-08T01:48:11;8.10;;;4.20;;
60488;SDS011;46331;49.252;8.904;2023-04-08T01:48:53;8.05;;;4.03;;
60488;SDS011;46331;49.252;8.904;2023-04-08T01:49:34;8.50;;;4.50;;
60488;SDS011;46331;49.252;8.904;2023-04-08T01:50:16;10.20;;;4.28;;
60488;SDS011;46331;49.252;8.904;2023-04-08T01:50:59;7.85;;;4.10;;
60488;SDS011;46331;49.252;8.904;2023-04-08T01:51:40;7.50;;;3.93;;
60488;SDS011;46331;49.252;8.904;2023-04-08T01:52:22;6.80;;;3.85;;
60488;SDS011;46331;49.252;8.904;2023-04-08T01:53:05;8.45;;;4.50;;
60488;SDS011;46331;49.252;8.904;2023-04-08T01:53:49;7.82;;;4.47;;
60488;SDS011;46331;49.252;8.904;2023-04-08T01:54:30;6.93;;;3.78;;
60488;SDS011;46331;49.252;8.904;2023-04-08T01:55:10;8.77;;;4.27;;
60488;SDS011;46331;49.252;8.904;2023-04-08T01:55:54;6.85;;;3.75;;
60488;SDS011;46331;49.252;8.904;2023-04-08T01:56:38;7.00;;;3.80;;
60488;SDS011;46331;49.252;8.904;2023-04-08T01:57:22;7.78;;;4.00;;
60488;SDS011;46331;49.252;8.904;2023-04-08T01:58:06;7.20;;;4.18;;
60488;SDS011;46331;49.252;8.904;2023-04-08T01:58:51;7.72;;;4.13;;
60488;SDS011;46331;49.252;8.904;2023-04-08T01:59:34;7.53;;;3.90;;
60488;SDS011;46331;49.252;8.904;2023-04-08T02:00:18;7.63;;;4.00;;
60488;SDS011;46331;49.252;8.904;2023-04-08T02:01:02;7.25;;;3.80;;
60488;SDS011;46331;49.252;8.904;2023-04-08T02:01:45;8.02;;;4.25;;
60488;SDS011;46331;49.252;8.904;2023-04-08T02:02:27;6.97;;;3.80;;
60488;SDS011;46331;49.252;8.904;2023-04-08T02:03:09;7.38;;;3.78;;
60488;SDS011;46331;49.252;8.904;2023-04-08T02:03:52;7.07;;;3.97;;
60488;SDS011;46331;49.252;8.904;2023-04-08T02:04:37;7.10;;;3.90;;
60488;SDS011;46331;49.252;8.904;2023-04-08T02:05:18;7.83;;;4.00;;
60488;SDS011;46331;49.252;8.904;2023-04-08T02:05:58;7.15;;;4.03;;
60488;SDS011;46331;49.252;8.904;2023-04-08T02:06:39;6.45;;;3.55;;
60488;SDS011;46331;49.252;8.904;2023-04-08T02:07:20;6.93;;;3.90;;
60488;SDS011;46331;49.252;8.904;2023-04-08T02:08:01;8.90;;;3.95;;
60488;SDS011;46331;49.252;8.904;2023-04-08T02:08:42;9.02;;;4.13;;
60488;SDS011;46331;49.252;8.904;2023-04-08T02:09:23;7.30;;;3.87;;
60488;SDS011;46331;49.252;8.904;2023-04-08T02:10:04;6.75;;;3.70;;
60488;SDS011;46331;49.252;8.904;2023-04-08T02:10:45;7.80;;;4.18;;
60488;SDS011;46331;49.252;8.904;2023-04-08T02:11:26;7.57;;;4.00;;
60488;SDS011;46331;49.252;8.904;2023-04-08T02:12:08;7.03;;;4.00;;
60488;SDS011;46331;49.252;8.904;2023-04-08T02:12:49;7.67;;;4.07;;
60488;SDS011;46331;49.252;8.904;2023-04-08T02:13:29;7.40;;;4.00;;
60488;SDS011;46331;49.252;8.904;2023-04-08T02:14:11;8.23;;;4.22;;
60488;SDS011;46331;49.252;8.904;2023-04-08T02:14:52;6.93;;;3.80;;
60488;SDS011;46331;49.252;8.904;2023-04-08T02:15:37;8.43;;;4.13;;
60488;SDS011;46331;49.252;8.904;2023-04-08T02:16:23;6.95;;;4.00;;
60488;SDS011;46331;49.252;8.904;2023-04-08T02:17:19;7.78;;;3.70;;
60488;SDS011;46331;49.252;8.904;2023-04-08T02:18:12;8.23;;;4.10;;
60488;SDS011;46331;49.252;8.904;2023-04-08T02:19:05;7.53;;;4.13;;
60488;SDS011;46331;49.252;8.904;2023-04-08T02:20:46;7.35;;;3.58;;
60488;SDS011;46331;49.252;8.904;2023-04-08T02:21:51;7.03;;;3.73;;
60488;SDS011;46331;49.252;8.904;2023-04-08T02:23:45;7.50;;;4.07;;
60488;SDS011;46331;49.252;8.904;2023-04-08T02:24:29;7.80;;;4.20;;
60488;SDS011;46331;49.252;8.904;2023-04-08T02:25:14;8.25;;;4.30;;
60488;SDS011;46331;49.252;8.904;2023-04-08T02:25:55;7.13;;;3.78;;
60488;SDS011;46331;49.252;8.904;2023-04-08T02:26:40;8.70;;;4.28;;
60488;SDS011;46331;49.252;8.904;2023-04-08T02:27:23;7.63;;;4.07;;
60488;SDS011;46331;49.252;8.904;2023-04-08T02:28:07;8.82;;;4.10;;
60488;SDS011;46331;49.252;8.904;2023-04-08T02:28:50;7.38;;;3.92;;
60488;SDS011;46331;49.252;8.904;2023-04-08T02:29:36;7.53;;;3.80;;
60488;SDS011;46331;49.252;8.904;2023-04-08T02:30:20;8.32;;;4.28;;
60488;SDS011;46331;49.252;8.904;2023-04-08T02:31:01;7.63;;;4.18;;
60488;SDS011;46331;49.252;8.904;2023-04-08T02:31:46;7.35;;;4.00;;
60488;SDS011;46331;49.252;8.904;2023-04-08T02:32:29;8.48;;;4.28;;
60488;SDS011;46331;49.252;8.904;2023-04-08T02:33:12;7.22;;;4.03;;
60488;SDS011;46331;49.252;8.904;2023-04-08T02:33:53;8.77;;;4.07;;
60488;SDS011;46331;49.252;8.904;2023-04-08T02:34:35;8.57;;;4.68;;
60488;SDS011;46331;49.252;8.904;2023-04-08T02:35:17;7.60;;;4.35;;
60488;SDS011;46331;49.252;8.904;2023-04-08T02:35:59;7.10;;;4.25;;
60488;SDS011;46331;49.252;8.904;2023-04-08T02:36:42;7.90;;;4.40;;
60488;SDS011;46331;49.252;8.904;2023-04-08T02:37:27;8.05;;;4.30;;
60488;SDS011;46331;49.252;8.904;2023-04-08T02:38:08;7.35;;;4.18;;
60488;SDS011;46331;49.252;8.904;2023-04-08T02:38:49;8.82;;;4.68;;
60488;SDS011;46331;49.252;8.904;2023-04-08T02:39:31;8.43;;;4.93;;
60488;SDS011;46331;49.252;8.904;2023-04-08T02:40:29;8.50;;;4.55;;
60488;SDS011;46331;49.252;8.904;2023-04-08T02:41:11;8.20;;;4.72;;
60488;SDS011;46331;49.252;8.904;2023-04-08T02:41:51;8.87;;;4.80;;
60488;SDS011;46331;49.252;8.904;2023-04-08T02:42:35;9.15;;;5.00;;
60488;SDS011;46331;49.252;8.904;2023-04-08T02:43:15;8.37;;;4.93;;
60488;SDS011;46331;49.252;8.904;2023-04-08T02:43:56;8.88;;;4.63;;
60488;SDS011;46331;49.252;8.904;2023-04-08T02:44:37;10.13;;;5.13;;
60488;SDS011;46331;49.252;8.904;2023-04-08T02:45:17;9.50;;;5.13;;
60488;SDS011;46331;49.252;8.904;2023-04-08T02:45:59;8.90;;;4.68;;
60488;SDS011;46331;49.252;8.904;2023-04-08T02:46:42;9.75;;;5.65;;
60488;SDS011;46331;49.252;8.904;2023-04-08T02:47:23;8.20;;;4.70;;
60488;SDS011;46331;49.252;8.904;2023-04-08T02:48:04;10.18;;;5.28;;
60488;SDS011;46331;49.252;8.904;2023-04-08T02:48:46;9.23;;;4.97;;
60488;SDS011;46331;49.252;8.904;2023-04-08T02:49:27;8.23;;;4.87;;
60488;SDS011;46331;49.252;8.904;2023-04-08T02:50:07;9.15;;;5.22;;
60488;SDS011;46331;49.252;8.904;2023-04-08T02:50:48;10.80;;;5.20;;
60488;SDS011;46331;49.252;8.904;2023-04-08T02:51:29;9.40;;;5.33;;
60488;SDS011;46331;49.252;8.904;2023-04-08T02:52:09;9.00;;;5.40;;
60488;SDS011;46331;49.252;8.904;2023-04-08T02:52:50;8.90;;;4.68;;
60488;SDS011;46331;49.252;8.904;2023-04-08T02:53:30;9.23;;;4.93;;
60488;SDS011;46331;49.252;8.904;2023-04-08T02:54:11;10.35;;;5.40;;
60488;SDS011;46331;49.252;8.904;2023-04-08T02:54:51;9.53;;;5.67;;
60488;SDS011;46331;49.252;8.904;2023-04-08T02:55:32;9.48;;;5.45;;
60488;SDS011;46331;49.252;8.904;2023-04-08T02:56:12;8.53;;;5.03;;
60488;SDS011;46331;49.252;8.904;2023-04-08T02:56:53;9.40;;;5.30;;
60488;SDS011;46331;49.252;8.904;2023-04-08T02:57:33;9.27;;;4.82;;
60488;SDS011;46331;49.252;8.904;2023-04-08T02:58:14;9.43;;;5.07;;
60488;SDS011;46331;49.252;8.904;2023-04-08T02:58:55;9.75;;;5.47;;
60488;SDS011;46331;49.252;8.904;2023-04-08T02:59:35;9.13;;;5.00;;
60488;SDS011;46331;49.252;8.904;2023-04-08T03:00:16;8.95;;;5.05;;
60488;SDS011;46331;49.252;8.904;2023-04-08T03:00:57;9.60;;;5.60;;
60488;SDS011;46331;49.252;8.904;2023-04-08T03:01:38;8.07;;;4.80;;
60488;SDS011;46331;49.252;8.904;2023-04-08T03:02:18;10.57;;;5.78;;
60488;SDS011;46331;49.252;8.904;2023-04-08T03:02:59;9.37;;;5.40;;
60488;SDS011;46331;49.252;8.904;2023-04-08T03:03:40;9.85;;;5.22;;
60488;SDS011;46331;49.252;8.904;2023-04-08T03:04:20;9.50;;;5.23;;
60488;SDS011;46331;49.252;8.904;2023-04-08T03:05:01;9.27;;;4.95;;
60488;SDS011;46331;49.252;8.904;2023-04-08T03:05:41;9.63;;;5.73;;
60488;SDS011;46331;49.252;8.904;2023-04-08T03:06:22;8.95;;;5.30;;
60488;SDS011;46331;49.252;8.904;2023-04-08T03:07:02;9.50;;;5.23;;
60488;SDS011;46331;49.252;8.904;2023-04-08T03:07:43;9.98;;;5.45;;
60488;SDS011;46331;49.252;8.904;2023-04-08T03:08:24;9.67;;;5.37;;
60488;SDS011;46331;49.252;8.904;2023-04-08T03:09:05;9.55;;;5.47;;
60488;SDS011;46331;49.252;8.904;2023-04-08T03:09:46;9.35;;;5.45;;
60488;SDS011;46331;49.252;8.904;2023-04-08T03:10:27;9.33;;;5.57;;
60488;SDS011;46331;49.252;8.904;2023-04-08T03:11:07;9.77;;;5.68;;
60488;SDS011;46331;49.252;8.904;2023-04-08T03:11:48;9.10;;;5.40;;
60488;SDS011;46331;49.252;8.904;2023-04-08T03:12:33;9.68;;;5.70;;
60488;SDS011;46331;49.252;8.904;2023-04-08T03:13:15;9.80;;;5.53;;
60488;SDS011;46331;49.252;8.904;2023-04-08T03:13:56;8.13;;;5.18;;
60488;SDS011;46331;49.252;8.904;2023-04-08T03:14:36;10.57;;;6.22;;
60488;SDS011;46331;49.252;8.904;2023-04-08T03:15:17;10.90;;;5.77;;
60488;SDS011;46331;49.252;8.904;2023-04-08T03:15:58;10.50;;;6.10;;
60488;SDS011;46331;49.252;8.904;2023-04-08T03:16:38;11.00;;;5.60;;
60488;SDS011;46331;49.252;8.904;2023-04-08T03:17:19;11.03;;;5.77;;
60488;SDS011;46331;49.252;8.904;2023-04-08T03:18:02;8.95;;;5.13;;
60488;SDS011;46331;49.252;8.904;2023-04-08T03:18:42;10.52;;;6.07;;
60488;SDS011;46331;49.252;8.904;2023-04-08T03:19:23;10.63;;;6.13;;
60488;SDS011;46331;49.252;8.904;2023-04-08T03:20:04;10.20;;;5.83;;
60488;SDS011;46331;49.252;8.904;2023-04-08T03:20:45;10.90;;;5.70;;
60488;SDS011;46331;49.252;8.904;2023-04-08T03:21:25;9.68;;;5.32;;
60488;SDS011;46331;49.252;8.904;2023-04-08T03:22:06;10.43;;;6.37;;
60488;SDS011;46331;49.252;8.904;2023-04-08T03:22:48;10.10;;;6.30;;
60488;SDS011;46331;49.252;8.904;2023-04-08T03:23:29;10.80;;;6.23;;
60488;SDS011;46331;49.252;8.904;2023-04-08T03:24:10;9.80;;;6.07;;
60488;SDS011;46331;49.252;8.904;2023-04-08T03:24:50;14.00;;;5.87;;
60488;SDS011;46331;49.252;8.904;2023-04-08T03:25:31;9.88;;;5.85;;
60488;SDS011;46331;49.252;8.904;2023-04-08T03:26:11;10.27;;;5.83;;
60488;SDS011;46331;49.252;8.904;2023-04-08T03:26:52;9.93;;;5.88;;
60488;SDS011;46331;49.252;8.904;2023-04-08T03:27:33;11.10;;;6.43;;
60488;SDS011;46331;49.252;8.904;2023-04-08T03:28:13;11.35;;;6.65;;
60488;SDS011;46331;49.252;8.904;2023-04-08T03:28:54;10.13;;;5.57;;
60488;SDS011;46331;49.252;8.904;2023-04-08T03:29:34;10.98;;;6.10;;
60488;SDS011;46331;49.252;8.904;2023-04-08T03:30:15;10.40;;;5.90;;
60488;SDS011;46331;49.252;8.904;2023-04-08T03:30:55;11.07;;;5.97;;
60488;SDS011;46331;49.252;8.904;2023-04-08T03:31:36;12.30;;;6.37;;
60488;SDS011;46331;49.252;8.904;2023-04-08T03:32:16;10.93;;;6.10;;
60488;SDS011;46331;49.252;8.904;2023-04-08T03:32:57;10.05;;;5.72;;
60488;SDS011;46331;49.252;8.904;2023-04-08T03:33:37;10.30;;;5.60;;
60488;SDS011;46331;49.252;8.904;2023-04-08T03:34:18;10.27;;;6.23;;
60488;SDS011;46331;49.252;8.904;2023-04-08T03:34:58;11.53;;;6.67;;
60488;SDS011;46331;49.252;8.904;2023-04-08T03:35:39;9.98;;;5.53;;
60488;SDS011;46331;49.252;8.904;2023-04-08T03:36:20;12.20;;;5.90;;
60488;SDS011;46331;49.252;8.904;2023-04-08T03:37:00;10.10;;;5.93;;
60488;SDS011;46331;49.252;8.904;2023-04-08T03:37:41;10.38;;;5.95;;
60488;SDS011;46331;49.252;8.904;2023-04-08T03:38:21;10.90;;;6.20;;
60488;SDS011;46331;49.252;8.904;2023-04-08T03:39:02;11.85;;;6.40;;
60488;SDS011;46331;49.252;8.904;2023-04-08T03:39:43;11.45;;;6.20;;
60488;SDS011;46331;49.252;8.904;2023-04-08T03:40:23;9.80;;;5.77;;
60488;SDS011;46331;49.252;8.904;2023-04-08T03:41:04;11.88;;;6.03;;
60488;SDS011;46331;49.252;8.904;2023-04-08T03:41:45;10.77;;;6.63;;
60488;SDS011;46331;49.252;8.904;2023-04-08T03:42:25;10.05;;;5.95;;
60488;SDS011;46331;49.252;8.904;2023-04-08T03:43:06;11.03;;;6.00;;
60488;SDS011;46331;49.252;8.904;2023-04-08T03:43:47;10.63;;;6.07;;
60488;SDS011;46331;49.252;8.904;2023-04-08T03:44:28;10.52;;;6.63;;
60488;SDS011;46331;49.252;8.904;2023-04-08T03:45:08;10.53;;;6.00;;
60488;SDS011;46331;49.252;8.904;2023-04-08T03:45:49;10.73;;;6.03;;
60488;SDS011;46331;49.252;8.904;2023-04-08T03:46:30;10.60;;;5.60;;
60488;SDS011;46331;49.252;8.904;2023-04-08T03:47:10;9.32;;;5.45;;
60488;SDS011;46331;49.252;8.904;2023-04-08T03:47:51;10.40;;;5.77;;
60488;SDS011;46331;49.252;8.904;2023-04-08T03:48:31;11.37;;;6.20;;
60488;SDS011;46331;49.252;8.904;2023-04-08T03:49:12;10.20;;;5.72;;
60488;SDS011;46331;49.252;8.904;2023-04-08T03:49:52;9.47;;;5.67;;
60488;SDS011;46331;49.252;8.904;2023-04-08T03:50:36;10.40;;;6.00;;
60488;SDS011;46331;49.252;8.904;2023-04-08T03:51:16;9.83;;;5.47;;
60488;SDS011;46331;49.252;8.904;2023-04-08T03:51:57;10.95;;;5.95;;
60488;SDS011;46331;49.252;8.904;2023-04-08T03:52:37;8.60;;;5.70;;
60488;SDS011;46331;49.252;8.904;2023-04-08T03:53:18;12.05;;;5.90;;
60488;SDS011;46331;49.252;8.904;2023-04-08T03:53:58;11.17;;;6.03;;
60488;SDS011;46331;49.252;8.904;2023-04-08T03:54:39;9.82;;;5.38;;
60488;SDS011;46331;49.252;8.904;2023-04-08T03:55:19;10.30;;;5.80;;
60488;SDS011;46331;49.252;8.904;2023-04-08T03:56:00;10.87;;;6.10;;
60488;SDS011;46331;49.252;8.904;2023-04-08T03:56:42;11.68;;;6.30;;
60488;SDS011;46331;49.252;8.904;2023-04-08T03:57:23;11.13;;;6.13;;
60488;SDS011;46331;49.252;8.904;2023-04-08T03:58:03;10.90;;;5.90;;
60488;SDS011;46331;49.252;8.904;2023-04-08T03:58:44;11.30;;;5.72;;
60488;SDS011;46331;49.252;8.904;2023-04-08T03:59:25;10.93;;;6.07;;
60488;SDS011;46331;49.252;8.904;2023-04-08T04:00:05;9.68;;;5.88;;
60488;SDS011;46331;49.252;8.904;2023-04-08T04:00:52;9.45;;;5.70;;
60488;SDS011;46331;49.252;8.904;2023-04-08T04:01:33;11.30;;;6.30;;
60488;SDS011;46331;49.252;8.904;2023-04-08T04:02:13;11.33;;;6.33;;
60488;SDS011;46331;49.252;8.904;2023-04-08T04:02:54;12.83;;;5.83;;
60488;SDS011;46331;49.252;8.904;2023-04-08T04:03:35;11.52;;;6.10;;
60488;SDS011;46331;49.252;8.904;2023-04-08T04:04:16;11.33;;;6.07;;
60488;SDS011;46331;49.252;8.904;2023-04-08T04:04:56;10.33;;;5.97;;
60488;SDS011;46331;49.252;8.904;2023-04-08T04:05:37;10.57;;;6.30;;
60488;SDS011;46331;49.252;8.904;2023-04-08T04:06:18;9.63;;;5.78;;
60488;SDS011;46331;49.252;8.904;2023-04-08T04:06:58;10.48;;;5.97;;
60488;SDS011;46331;49.252;8.904;2023-04-08T04:07:39;9.30;;;5.63;;
60488;SDS011;46331;49.252;8.904;2023-04-08T04:08:19;9.80;;;5.80;;
60488;SDS011;46331;49.252;8.904;2023-04-08T04:09:00;10.03;;;5.97;;
60488;SDS011;46331;49.252;8.904;2023-04-08T04:09:40;11.10;;;6.17;;
60488;SDS011;46331;49.252;8.904;2023-04-08T04:10:21;10.75;;;5.53;;
60488;SDS011;46331;49.252;8.904;2023-04-08T04:11:01;10.17;;;6.10;;
60488;SDS011;46331;49.252;8.904;2023-04-08T04:11:42;11.00;;;6.17;;
60488;SDS011;46331;49.252;8.904;2023-04-08T04:12:22;10.63;;;5.60;;
60488;SDS011;46331;49.252;8.904;2023-04-08T04:13:03;11.32;;;6.55;;
60488;SDS011;46331;49.252;8.904;2023-04-08T04:13:44;10.82;;;6.45;;
60488;SDS011;46331;49.252;8.904;2023-04-08T04:14:25;10.47;;;5.80;;
60488;SDS011;46331;49.252;8.904;2023-04-08T04:15:06;10.50;;;6.13;;
60488;SDS011;46331;49.252;8.904;2023-04-08T04:15:46;10.57;;;6.18;;
60488;SDS011;46331;49.252;8.904;2023-04-08T04:16:27;10.27;;;5.85;;
60488;SDS011;46331;49.252;8.904;2023-04-08T04:17:07;11.27;;;6.63;;
60488;SDS011;46331;49.252;8.904;2023-04-08T04:17:48;11.07;;;6.50;;
60488;SDS011;46331;49.252;8.904;2023-04-08T04:18:31;12.48;;;6.63;;
60488;SDS011;46331;49.252;8.904;2023-04-08T04:19:12;12.48;;;6.78;;
60488;SDS011;46331;49.252;8.904;2023-04-08T04:19:52;12.67;;;6.50;;